PWSweather.com
Personal Weather Stations
Station Observations
KMNGREYC2
Grey Cloud Island, Grey Cloud Island, MN 55071

Grey Cloud IslandGrey Cloud Island, MN 55071

Lat: 44.799333, Lon: -92.987851

Elevation: 700

Station Type: Davis VP2

www.jagielski.com/weather/conditions.htm

High Low Average
Temperature 45.6°F7.6°C 40.3°F4.6°C 43.1°F6.2°C
Dew Point 43.6°F6.4°C 33.5°F0.8°C 38.9°F3.8°C
Winds 4.0 mph 6.4 kmh Calm Calm 1.0 mph ENE1.6 kmh ENE
Wind Gusts 9.0 mph14.5 kmh 1.0 mph1.6 kmh 5.0 mph8.0 kmh
Humidity 94% 75% 85%
Pressure 30.19 in1022.4 mb 30.09 in1019.0 mb -
Precipitation 0.00 in0.0 mm - -
Hour Temp Dew Point Humidity Winds Wind Gusts Pressure Precip Precip Rate Daily Precip Total
12:00 AM 45.6°F7.6°C 38.8°F3.8°C 77% Calm Calm 6.0 mph9.7 kmh 30.12 in1020.0 mb 0.00 in0.0 mm 0.00 in0.0 mm 0.00 in0.0 mm
12:15 AM 45.4°F7.4°C 39.0°F3.9°C 78% Calm Calm 2.0 mph3.2 kmh 30.13 in1020.3 mb 0.00 in0.0 mm 0.00 in0.0 mm 0.00 in0.0 mm
12:30 AM 45.3°F7.4°C 39.2°F4.0°C 79% Calm Calm 5.0 mph8.0 kmh 30.13 in1020.3 mb 0.00 in0.0 mm 0.00 in0.0 mm 0.00 in0.0 mm
12:45 AM 45.2°F7.3°C 39.1°F3.9°C 79% Calm Calm 2.0 mph3.2 kmh 30.14 in1020.7 mb 0.00 in0.0 mm 0.00 in0.0 mm 0.00 in0.0 mm
01:00 AM 45.0°F7.2°C 38.9°F3.8°C 79% Calm Calm 3.0 mph4.8 kmh 30.13 in1020.3 mb 0.00 in0.0 mm 0.00 in0.0 mm 0.00 in0.0 mm
01:15 AM 44.6°F7.0°C 38.8°F3.8°C 80% Calm Calm 3.0 mph4.8 kmh 30.13 in1020.3 mb 0.00 in0.0 mm 0.00 in0.0 mm 0.00 in0.0 mm
01:30 AM 44.0°F6.7°C 38.6°F3.7°C 81% 1.0 mph NNE1.6 kmh NNE 4.0 mph6.4 kmh 30.13 in1020.3 mb 0.00 in0.0 mm 0.00 in0.0 mm 0.00 in0.0 mm
01:45 AM 43.6°F6.4°C 38.5°F3.6°C 82% Calm Calm 1.0 mph1.6 kmh 30.13 in1020.3 mb 0.00 in0.0 mm 0.00 in0.0 mm 0.00 in0.0 mm
02:00 AM 43.2°F6.2°C 38.4°F3.6°C 83% Calm Calm 6.0 mph9.7 kmh 30.13 in1020.3 mb 0.00 in0.0 mm 0.00 in0.0 mm 0.00 in0.0 mm
02:15 AM 43.0°F6.1°C 38.5°F3.6°C 84% Calm Calm 3.0 mph4.8 kmh 30.14 in1020.7 mb 0.00 in0.0 mm 0.00 in0.0 mm 0.00 in0.0 mm
02:30 AM 42.9°F6.1°C 38.4°F3.6°C 84% Calm Calm 4.0 mph6.4 kmh 30.14 in1020.7 mb 0.00 in0.0 mm 0.00 in0.0 mm 0.00 in0.0 mm
02:45 AM 42.6°F5.9°C 37.8°F3.2°C 83% Calm Calm 7.0 mph11.3 kmh 30.14 in1020.7 mb 0.00 in0.0 mm 0.00 in0.0 mm 0.00 in0.0 mm
03:00 AM 42.3°F5.7°C 37.8°F3.2°C 84% Calm Calm 7.0 mph11.3 kmh 30.15 in1021.0 mb 0.00 in0.0 mm 0.00 in0.0 mm 0.00 in0.0 mm
03:15 AM 42.0°F5.6°C 37.5°F3.1°C 84% Calm Calm 4.0 mph6.4 kmh 30.15 in1021.0 mb 0.00 in0.0 mm 0.00 in0.0 mm 0.00 in0.0 mm
03:30 AM 41.7°F5.4°C 37.2°F2.9°C 84% Calm Calm 5.0 mph8.0 kmh 30.16 in1021.3 mb 0.00 in0.0 mm 0.00 in0.0 mm 0.00 in0.0 mm
03:45 AM 41.5°F5.3°C 36.7°F2.6°C 83% 2.0 mph NNE3.2 kmh NNE 4.0 mph6.4 kmh 30.16 in1021.3 mb 0.00 in0.0 mm 0.00 in0.0 mm 0.00 in0.0 mm
04:00 AM 41.4°F5.2°C 36.0°F2.2°C 81% Calm Calm 6.0 mph9.7 kmh 30.16 in1021.3 mb 0.00 in0.0 mm 0.00 in0.0 mm 0.00 in0.0 mm
04:15 AM 41.3°F5.2°C 35.3°F1.8°C 79% Calm Calm 4.0 mph6.4 kmh 30.16 in1021.3 mb 0.00 in0.0 mm 0.00 in0.0 mm 0.00 in0.0 mm
04:30 AM 41.3°F5.2°C 35.0°F1.7°C 78% 2.0 mph NE3.2 kmh NE 5.0 mph8.0 kmh 30.18 in1022.0 mb 0.00 in0.0 mm 0.00 in0.0 mm 0.00 in0.0 mm
04:45 AM 41.1°F5.1°C 34.1°F1.2°C 76% 2.0 mph NNE3.2 kmh NNE 5.0 mph8.0 kmh 30.17 in1021.7 mb 0.00 in0.0 mm 0.00 in0.0 mm 0.00 in0.0 mm
05:00 AM 41.1°F5.1°C 34.5°F1.4°C 77% 1.0 mph NNE1.6 kmh NNE 5.0 mph8.0 kmh 30.17 in1021.7 mb 0.00 in0.0 mm 0.00 in0.0 mm 0.00 in0.0 mm
05:15 AM 41.0°F5.0°C 33.7°F0.9°C 75% 3.0 mph NE4.8 kmh NE 7.0 mph11.3 kmh 30.17 in1021.7 mb 0.00 in0.0 mm 0.00 in0.0 mm 0.00 in0.0 mm
05:30 AM 40.9°F4.9°C 33.6°F0.9°C 75% 1.0 mph NE1.6 kmh NE 7.0 mph11.3 kmh 30.17 in1021.7 mb 0.00 in0.0 mm 0.00 in0.0 mm 0.00 in0.0 mm
05:45 AM 40.7°F4.8°C 33.7°F0.9°C 76% 2.0 mph E3.2 kmh E 6.0 mph9.7 kmh 30.16 in1021.3 mb 0.00 in0.0 mm 0.00 in0.0 mm 0.00 in0.0 mm
06:00 AM 40.4°F4.7°C 33.5°F0.8°C 76% Calm Calm 7.0 mph11.3 kmh 30.16 in1021.3 mb 0.00 in0.0 mm 0.00 in0.0 mm 0.00 in0.0 mm
06:15 AM 40.3°F4.6°C 33.7°F0.9°C 77% Calm Calm 5.0 mph8.0 kmh 30.17 in1021.7 mb 0.00 in0.0 mm 0.00 in0.0 mm 0.00 in0.0 mm
06:30 AM 40.3°F4.6°C 33.7°F0.9°C 77% Calm Calm 6.0 mph9.7 kmh 30.18 in1022.0 mb 0.00 in0.0 mm 0.00 in0.0 mm 0.00 in0.0 mm
06:45 AM 40.4°F4.7°C 33.8°F1.0°C 77% Calm Calm 7.0 mph11.3 kmh 30.18 in1022.0 mb 0.00 in0.0 mm 0.00 in0.0 mm 0.00 in0.0 mm
07:00 AM 40.5°F4.7°C 33.9°F1.1°C 77% Calm Calm 8.0 mph12.9 kmh 30.18 in1022.0 mb 0.00 in0.0 mm 0.00 in0.0 mm 0.00 in0.0 mm
07:15 AM 40.7°F4.8°C 34.4°F1.3°C 78% Calm Calm 5.0 mph8.0 kmh 30.19 in1022.4 mb 0.00 in0.0 mm 0.00 in0.0 mm 0.00 in0.0 mm
07:30 AM 41.0°F5.0°C 34.4°F1.3°C 77% Calm Calm 8.0 mph12.9 kmh 30.18 in1022.0 mb 0.00 in0.0 mm 0.00 in0.0 mm 0.00 in0.0 mm
07:45 AM 41.0°F5.0°C 34.4°F1.3°C 77% 3.0 mph NNE4.8 kmh NNE 5.0 mph8.0 kmh 30.17 in1021.7 mb 0.00 in0.0 mm 0.00 in0.0 mm 0.00 in0.0 mm
08:00 AM 41.0°F5.0°C 34.7°F1.5°C 78% Calm Calm 7.0 mph11.3 kmh 30.17 in1021.7 mb 0.00 in0.0 mm 0.00 in0.0 mm 0.00 in0.0 mm
08:15 AM 41.1°F5.1°C 35.1°F1.7°C 79% 1.0 mph NE1.6 kmh NE 8.0 mph12.9 kmh 30.17 in1021.7 mb 0.00 in0.0 mm 0.00 in0.0 mm 0.00 in0.0 mm
08:30 AM 41.1°F5.1°C 35.1°F1.7°C 79% Calm Calm 8.0 mph12.9 kmh 30.16 in1021.3 mb 0.00 in0.0 mm 0.00 in0.0 mm 0.00 in0.0 mm
08:45 AM 41.3°F5.2°C 35.6°F2.0°C 80% 3.0 mph E4.8 kmh E 3.0 mph4.8 kmh 30.16 in1021.3 mb 0.00 in0.0 mm 0.00 in0.0 mm 0.00 in0.0 mm
09:00 AM 41.5°F5.3°C 35.8°F2.1°C 80% 1.0 mph NE1.6 kmh NE 5.0 mph8.0 kmh 30.17 in1021.7 mb 0.00 in0.0 mm 0.00 in0.0 mm 0.00 in0.0 mm
09:15 AM 41.6°F5.3°C 35.9°F2.2°C 80% Calm Calm 3.0 mph4.8 kmh 30.17 in1021.7 mb 0.00 in0.0 mm 0.00 in0.0 mm 0.00 in0.0 mm
09:30 AM 41.6°F5.3°C 36.8°F2.7°C 83% Calm Calm 4.0 mph6.4 kmh 30.17 in1021.7 mb 0.00 in0.0 mm 0.00 in0.0 mm 0.00 in0.0 mm
09:45 AM 41.5°F5.3°C 37.3°F2.9°C 85% Calm Calm 2.0 mph3.2 kmh 30.18 in1022.0 mb 0.00 in0.0 mm 0.00 in0.0 mm 0.00 in0.0 mm
10:00 AM 41.6°F5.3°C 38.3°F3.5°C 88% Calm Calm 4.0 mph6.4 kmh 30.17 in1021.7 mb 0.01 in0.3 mm 0.01 in0.3 mm 0.01 in0.3 mm
10:15 AM 41.6°F5.3°C 38.6°F3.7°C 89% 2.0 mph NE3.2 kmh NE 2.0 mph3.2 kmh 30.17 in1021.7 mb 0.01 in0.3 mm 0.00 in0.0 mm 0.01 in0.3 mm
10:30 AM 41.8°F5.4°C 39.1°F3.9°C 90% Calm Calm 4.0 mph6.4 kmh 30.17 in1021.7 mb 0.01 in0.3 mm 0.00 in0.0 mm 0.01 in0.3 mm
10:45 AM 42.2°F5.7°C 39.8°F4.3°C 91% 2.0 mph NNE3.2 kmh NNE 5.0 mph8.0 kmh 30.17 in1021.7 mb 0.01 in0.3 mm 0.00 in0.0 mm 0.01 in0.3 mm
11:00 AM 42.7°F5.9°C 40.5°F4.7°C 92% 1.0 mph ENE1.6 kmh ENE 5.0 mph8.0 kmh 30.17 in1021.7 mb 0.02 in0.5 mm 0.01 in0.3 mm 0.02 in0.5 mm
11:15 AM 43.6°F6.4°C 41.4°F5.2°C 92% Calm Calm 7.0 mph11.3 kmh 30.16 in1021.3 mb 0.01 in0.3 mm 0.00 in0.0 mm 0.02 in0.5 mm
11:30 AM 44.3°F6.8°C 42.4°F5.8°C 93% 2.0 mph ENE3.2 kmh ENE 7.0 mph11.3 kmh 30.16 in1021.3 mb 0.01 in0.3 mm 0.00 in0.0 mm 0.02 in0.5 mm
11:45 AM 44.7°F7.1°C 42.8°F6.0°C 93% 2.0 mph NNE3.2 kmh NNE 5.0 mph8.0 kmh 30.15 in1021.0 mb 0.01 in0.3 mm 0.00 in0.0 mm 0.02 in0.5 mm
12:00 PM 45.1°F7.3°C 42.9°F6.1°C 92% 3.0 mph NNE4.8 kmh NNE 7.0 mph11.3 kmh 30.14 in1020.7 mb 0.01 in0.3 mm 0.00 in0.0 mm 0.02 in0.5 mm
12:15 PM 45.2°F7.3°C 43.0°F6.1°C 92% Calm Calm 7.0 mph11.3 kmh 30.13 in1020.3 mb 0.00 in0.0 mm 0.00 in0.0 mm 0.02 in0.5 mm
12:30 PM 45.3°F7.4°C 42.8°F6.0°C 91% 4.0 mph E6.4 kmh E 7.0 mph11.3 kmh 30.12 in1020.0 mb 0.01 in0.3 mm 0.04 in1.0 mm 0.03 in0.8 mm
12:45 PM 45.4°F7.4°C 42.9°F6.1°C 91% Calm Calm 3.0 mph4.8 kmh 30.14 in1020.7 mb 0.01 in0.3 mm 0.00 in0.0 mm 0.03 in0.8 mm
01:00 PM 45.4°F7.4°C 42.9°F6.1°C 91% Calm Calm 3.0 mph4.8 kmh 30.14 in1020.7 mb 0.03 in0.8 mm 0.03 in0.8 mm 0.05 in1.3 mm
01:15 PM 45.4°F7.4°C 43.2°F6.2°C 92% Calm Calm 4.0 mph6.4 kmh 30.15 in1021.0 mb 0.05 in1.3 mm 0.08 in2.0 mm 0.07 in1.8 mm
01:30 PM 45.5°F7.5°C 43.3°F6.3°C 92% Calm Calm 6.0 mph9.7 kmh 30.15 in1021.0 mb 0.07 in1.8 mm 0.08 in2.0 mm 0.09 in2.3 mm
01:45 PM 45.2°F7.3°C 43.0°F6.1°C 92% Calm Calm 5.0 mph8.0 kmh 30.15 in1021.0 mb 0.08 in2.0 mm 0.04 in1.0 mm 0.10 in2.5 mm
02:00 PM 45.4°F7.4°C 43.2°F6.2°C 92% Calm Calm 9.0 mph14.5 kmh 30.14 in1020.7 mb 0.09 in2.3 mm 0.01 in0.3 mm 0.11 in2.8 mm
02:15 PM 45.5°F7.5°C 43.6°F6.4°C 93% Calm Calm 8.0 mph12.9 kmh 30.14 in1020.7 mb 0.07 in1.8 mm 0.00 in0.0 mm 0.11 in2.8 mm
02:30 PM 45.6°F7.6°C 43.4°F6.3°C 92% Calm Calm 8.0 mph12.9 kmh 30.14 in1020.7 mb 0.07 in1.8 mm 0.00 in0.0 mm 0.11 in2.8 mm
02:45 PM 45.2°F7.3°C 43.0°F6.1°C 92% Calm Calm 7.0 mph11.3 kmh 30.14 in1020.7 mb 0.03 in0.8 mm 0.00 in0.0 mm 0.11 in2.8 mm
03:00 PM 45.1°F7.3°C 42.9°F6.1°C 92% 1.0 mph ENE1.6 kmh ENE 7.0 mph11.3 kmh 30.13 in1020.3 mb 0.04 in1.0 mm 0.01 in0.3 mm 0.12 in3.0 mm
03:15 PM 45.0°F7.2°C 43.1°F6.2°C 93% Calm Calm 6.0 mph9.7 kmh 30.12 in1020.0 mb 0.03 in0.8 mm 0.00 in0.0 mm 0.12 in3.0 mm
03:30 PM 44.7°F7.1°C 42.8°F6.0°C 93% 2.0 mph SE3.2 kmh SE 9.0 mph14.5 kmh 30.11 in1019.6 mb 0.03 in0.8 mm 0.00 in0.0 mm 0.12 in3.0 mm
03:45 PM 44.5°F6.9°C 42.3°F5.7°C 92% Calm Calm 8.0 mph12.9 kmh 30.11 in1019.6 mb 0.02 in0.5 mm 0.00 in0.0 mm 0.12 in3.0 mm
04:00 PM 44.4°F6.9°C 42.5°F5.8°C 93% Calm Calm 8.0 mph12.9 kmh 30.10 in1019.3 mb 0.02 in0.5 mm 0.00 in0.0 mm 0.12 in3.0 mm
04:15 PM 44.3°F6.8°C 42.4°F5.8°C 93% Calm Calm 5.0 mph8.0 kmh 30.11 in1019.6 mb 0.02 in0.5 mm 0.00 in0.0 mm 0.12 in3.0 mm
04:30 PM 44.2°F6.8°C 42.3°F5.7°C 93% 2.0 mph ESE3.2 kmh ESE 5.0 mph8.0 kmh 30.11 in1019.6 mb 0.02 in0.5 mm 0.00 in0.0 mm 0.12 in3.0 mm
04:45 PM 44.2°F6.8°C 42.3°F5.7°C 93% 2.0 mph ENE3.2 kmh ENE 4.0 mph6.4 kmh 30.11 in1019.6 mb 0.01 in0.3 mm 0.00 in0.0 mm 0.12 in3.0 mm
05:00 PM 44.1°F6.7°C 42.2°F5.7°C 93% Calm Calm 4.0 mph6.4 kmh 30.10 in1019.3 mb 0.02 in0.5 mm 0.01 in0.3 mm 0.13 in3.3 mm
05:15 PM 44.1°F6.7°C 42.5°F5.8°C 94% Calm Calm 8.0 mph12.9 kmh 30.09 in1019.0 mb 0.01 in0.3 mm 0.00 in0.0 mm 0.13 in3.3 mm
05:30 PM 43.9°F6.6°C 42.3°F5.7°C 94% 2.0 mph NE3.2 kmh NE 8.0 mph12.9 kmh 30.09 in1019.0 mb 0.01 in0.3 mm 0.00 in0.0 mm 0.13 in3.3 mm
05:45 PM 43.8°F6.6°C 42.2°F5.7°C 94% 2.0 mph NE3.2 kmh NE 7.0 mph11.3 kmh 30.09 in1019.0 mb 0.01 in0.3 mm 0.00 in0.0 mm 0.13 in3.3 mm
06:00 PM 43.6°F6.4°C 42.0°F5.6°C 94% 3.0 mph NE4.8 kmh NE 7.0 mph11.3 kmh 30.08 in1018.6 mb 0.01 in0.3 mm 0.00 in0.0 mm 0.13 in3.3 mm
06:15 PM 43.4°F6.3°C 41.8°F5.4°C 94% Calm Calm 9.0 mph14.5 kmh 30.08 in1018.6 mb 0.00 in0.0 mm 0.00 in0.0 mm 0.13 in3.3 mm
06:30 PM 43.1°F6.2°C 41.5°F5.3°C 94% Calm Calm 9.0 mph14.5 kmh 30.09 in1019.0 mb 0.00 in0.0 mm 0.00 in0.0 mm 0.13 in3.3 mm
06:45 PM 42.9°F6.1°C 41.3°F5.2°C 94% 1.0 mph E1.6 kmh E 7.0 mph11.3 kmh 30.09 in1019.0 mb 0.00 in0.0 mm 0.00 in0.0 mm 0.13 in3.3 mm
07:00 PM 42.6°F5.9°C 40.7°F4.8°C 93% 2.0 mph E3.2 kmh E 7.0 mph11.3 kmh 30.09 in1019.0 mb 0.00 in0.0 mm 0.00 in0.0 mm 0.13 in3.3 mm
07:15 PM 42.4°F5.8°C 40.8°F4.9°C 94% Calm Calm 6.0 mph9.7 kmh 30.08 in1018.6 mb 0.00 in0.0 mm 0.00 in0.0 mm 0.13 in3.3 mm
07:30 PM 42.1°F5.6°C 40.5°F4.7°C 94% Calm Calm 9.0 mph14.5 kmh 30.09 in1019.0 mb 0.00 in0.0 mm 0.00 in0.0 mm 0.13 in3.3 mm
07:45 PM 41.8°F5.4°C 39.9°F4.4°C 93% 5.0 mph NE8.0 kmh NE 8.0 mph12.9 kmh 30.08 in1018.6 mb 0.00 in0.0 mm 0.00 in0.0 mm 0.13 in3.3 mm
08:00 PM 41.5°F5.3°C 39.6°F4.2°C 93% 1.0 mph ENE1.6 kmh ENE 11.0 mph17.7 kmh 30.08 in1018.6 mb 0.00 in0.0 mm 0.00 in0.0 mm 0.13 in3.3 mm
08:15 PM 41.4°F5.2°C 39.5°F4.2°C 93% 4.0 mph ENE6.4 kmh ENE 9.0 mph14.5 kmh 30.08 in1018.6 mb 0.00 in0.0 mm 0.00 in0.0 mm 0.13 in3.3 mm
08:30 PM 41.2°F5.1°C 39.3°F4.1°C 93% Calm Calm 10.0 mph16.1 kmh 30.08 in1018.6 mb 0.00 in0.0 mm 0.00 in0.0 mm 0.13 in3.3 mm
08:45 PM 41.0°F5.0°C 38.9°F3.8°C 92% 1.0 mph NE1.6 kmh NE 8.0 mph12.9 kmh 30.06 in1017.9 mb 0.00 in0.0 mm 0.00 in0.0 mm 0.13 in3.3 mm
09:00 PM 40.9°F4.9°C 38.8°F3.8°C 92% 2.0 mph SE3.2 kmh SE 8.0 mph12.9 kmh 30.06 in1017.9 mb 0.00 in0.0 mm 0.00 in0.0 mm 0.13 in3.3 mm
09:15 PM 40.8°F4.9°C 38.9°F3.8°C 93% 2.0 mph NE3.2 kmh NE 8.0 mph12.9 kmh 30.05 in1017.6 mb 0.00 in0.0 mm 0.00 in0.0 mm 0.13 in3.3 mm
09:30 PM 40.8°F4.9°C 38.7°F3.7°C 92% 2.0 mph SE3.2 kmh SE 8.0 mph12.9 kmh 30.06 in1017.9 mb 0.00 in0.0 mm 0.00 in0.0 mm 0.13 in3.3 mm
09:45 PM 40.8°F4.9°C 38.7°F3.7°C 92% 2.0 mph NE3.2 kmh NE 5.0 mph8.0 kmh 30.05 in1017.6 mb 0.00 in0.0 mm 0.00 in0.0 mm 0.13 in3.3 mm
10:00 PM 40.9°F4.9°C 38.8°F3.8°C 92% Calm Calm 5.0 mph8.0 kmh 30.04 in1017.3 mb 0.00 in0.0 mm 0.00 in0.0 mm 0.13 in3.3 mm
10:15 PM 40.9°F4.9°C 38.8°F3.8°C 92% Calm Calm 3.0 mph4.8 kmh 30.04 in1017.3 mb 0.00 in0.0 mm 0.00 in0.0 mm 0.13 in3.3 mm
10:30 PM 41.0°F5.0°C 38.9°F3.8°C 92% Calm Calm 3.0 mph4.8 kmh 30.04 in1017.3 mb 0.00 in0.0 mm 0.00 in0.0 mm 0.13 in3.3 mm
10:45 PM 41.1°F5.1°C 39.0°F3.9°C 92% Calm Calm 2.0 mph3.2 kmh 30.03 in1016.9 mb 0.00 in0.0 mm 0.00 in0.0 mm 0.13 in3.3 mm
11:00 PM 41.1°F5.1°C 39.2°F4.0°C 93% Calm Calm 2.0 mph3.2 kmh 30.03 in1016.9 mb 0.01 in0.3 mm 0.01 in0.3 mm 0.14 in3.6 mm
11:15 PM 41.1°F5.1°C 39.2°F4.0°C 93% Calm Calm 2.0 mph3.2 kmh 30.03 in1016.9 mb 0.02 in0.5 mm 0.04 in1.0 mm 0.15 in3.8 mm
11:30 PM 41.0°F5.0°C 39.1°F3.9°C 93% Calm Calm 4.0 mph6.4 kmh 30.03 in1016.9 mb 0.02 in0.5 mm 0.00 in0.0 mm 0.15 in3.8 mm
11:45 PM 41.0°F5.0°C 39.1°F3.9°C 93% Calm Calm 2.0 mph3.2 kmh 30.03 in1016.9 mb 0.02 in0.5 mm 0.00 in0.0 mm 0.15 in3.8 mm